createdAt,value
2022-08-10T00:00:57.843Z,18.30
2022-08-10T00:05:59.988Z,18.30
2022-08-10T00:11:02.170Z,18.10
2022-08-10T00:16:06.374Z,17.80
2022-08-10T00:21:09.571Z,17.70
2022-08-10T00:26:11.827Z,17.80
2022-08-10T00:31:14.096Z,17.80
2022-08-10T00:36:16.295Z,17.90
2022-08-10T00:41:18.525Z,18.00
2022-08-10T00:46:20.660Z,18.10
2022-08-10T00:51:22.902Z,18.10
2022-08-10T00:57:15.549Z,18.10
2022-08-10T01:02:11.710Z,18.10
2022-08-10T01:07:43.312Z,18.10
2022-08-10T01:12:56.968Z,18.00
2022-08-10T01:18:05.749Z,18.00
2022-08-10T01:23:32.317Z,18.00
2022-08-10T01:28:41.785Z,18.00
2022-08-10T01:34:01.895Z,17.90
2022-08-10T01:39:06.284Z,17.90
2022-08-10T01:44:11.763Z,17.90
2022-08-10T01:49:18.005Z,17.80
2022-08-10T01:54:22.375Z,17.70
2022-08-10T01:59:32.823Z,17.60
2022-08-10T02:04:38.144Z,17.50
2022-08-10T02:09:45.489Z,17.40
2022-08-10T02:15:01.136Z,17.30
2022-08-10T02:20:08.045Z,17.20
2022-08-10T02:25:41.644Z,17.30
2022-08-10T02:30:36.881Z,17.30
2022-08-10T02:35:54.161Z,17.30
2022-08-10T02:45:16.072Z,17.30
2022-08-10T02:46:39.007Z,17.30
2022-08-10T02:52:07.509Z,17.20
2022-08-10T02:57:20.653Z,17.20
2022-08-10T03:02:36.745Z,17.20
2022-08-10T03:08:17.336Z,17.10
2022-08-10T03:13:21.472Z,17.00
2022-08-10T03:18:25.183Z,17.00
2022-08-10T03:23:28.759Z,16.90
2022-08-10T03:28:33.230Z,16.80
2022-08-10T03:33:38.794Z,16.70
2022-08-10T03:38:41.602Z,16.70
2022-08-10T03:43:48.127Z,16.60
2022-08-10T03:48:53.136Z,16.50
2022-08-10T03:54:03.138Z,16.60
2022-08-10T03:59:11.358Z,16.60
2022-08-10T04:04:17.862Z,16.50
2022-08-10T04:09:54.354Z,16.40
2022-08-10T04:14:53.681Z,16.30
2022-08-10T04:19:57.818Z,16.40
2022-08-10T04:25:03.341Z,16.40
2022-08-10T04:30:06.111Z,16.40
2022-08-10T04:35:11.019Z,16.40
2022-08-10T04:40:29.648Z,16.50
2022-08-10T04:45:48.647Z,16.60
2022-08-10T04:50:54.101Z,16.60
2022-08-10T04:55:57.001Z,16.60
2022-08-10T05:00:59.380Z,16.70
2022-08-10T05:06:01.624Z,16.70
2022-08-10T05:11:04.541Z,16.80
2022-08-10T05:16:06.956Z,16.80
2022-08-10T05:21:09.158Z,16.80
2022-08-10T05:26:11.297Z,16.90
2022-08-10T05:31:17.753Z,17.00
2022-08-10T05:36:26.453Z,17.30
2022-08-10T05:41:28.807Z,17.40
2022-08-10T05:46:30.937Z,17.50
2022-08-10T05:51:33.125Z,17.50
2022-08-10T05:56:53.490Z,17.50
2022-08-10T06:02:31.681Z,17.50
2022-08-10T06:07:27.501Z,17.60
2022-08-10T06:12:32.782Z,17.70
2022-08-10T06:17:40.836Z,17.70
2022-08-10T06:22:43.005Z,17.80
2022-08-10T06:27:47.182Z,17.80
2022-08-10T06:32:55.748Z,17.90
2022-08-10T06:38:00.116Z,18.10
2022-08-10T06:43:06.478Z,18.20
2022-08-10T06:48:32.439Z,18.40
2022-08-10T06:53:53.119Z,18.60
2022-08-10T06:59:13.439Z,18.80
2022-08-10T07:04:32.300Z,18.90
2022-08-10T07:09:39.179Z,19.10
2022-08-10T07:14:44.806Z,19.20
2022-08-10T07:19:52.213Z,19.20
2022-08-10T07:24:56.920Z,19.20
2022-08-10T07:30:00.650Z,19.20
2022-08-10T07:35:03.994Z,19.30
2022-08-10T07:40:08.309Z,19.30
2022-08-10T07:45:11.267Z,19.40
2022-08-10T07:50:16.499Z,19.50
2022-08-10T07:56:04.730Z,19.60
2022-08-10T08:00:45.560Z,19.70
2022-08-10T08:05:58.420Z,19.80
2022-08-10T08:11:06.681Z,19.90
2022-08-10T08:16:20.203Z,20.10
2022-08-10T08:24:05.778Z,20.10
2022-08-10T08:26:52.053Z,20.30
2022-08-10T08:32:02.194Z,20.40
2022-08-10T08:37:07.123Z,20.60
2022-08-10T08:42:53.473Z,20.70
2022-08-10T08:48:11.638Z,21.00
2022-08-10T08:54:03.160Z,21.10
2022-08-10T08:59:26.563Z,21.30
2022-08-10T09:05:13.972Z,21.50
2022-08-10T09:10:54.075Z,21.60
2022-08-10T09:16:23.653Z,21.80
2022-08-10T09:21:43.410Z,22.00
2022-08-10T09:27:09.415Z,22.20
2022-08-10T09:36:15.669Z,22.40
2022-08-10T09:38:04.243Z,22.60
2022-08-10T09:43:26.193Z,22.80
2022-08-10T09:48:47.481Z,23.00
2022-08-10T09:54:17.590Z,23.30
2022-08-10T10:00:00.095Z,23.50
2022-08-10T10:05:10.509Z,23.50
2022-08-10T10:10:14.915Z,23.60
2022-08-10T10:15:33.187Z,23.80
2022-08-10T10:20:38.222Z,23.90
2022-08-10T10:25:50.581Z,24.10
2022-08-10T10:30:56.868Z,24.20
2022-08-10T10:36:00.106Z,24.40
2022-08-10T10:41:23.311Z,24.70
2022-08-10T10:46:45.937Z,24.90
2022-08-10T10:52:01.973Z,25.00
2022-08-10T10:57:22.832Z,25.10
2022-08-10T11:02:59.342Z,25.30
2022-08-10T11:08:29.563Z,25.50
2022-08-10T11:14:27.038Z,25.80
2022-08-10T11:20:02.362Z,26.10
2022-08-10T11:25:28.231Z,26.10
2022-08-10T11:30:51.913Z,26.10
2022-08-10T11:36:00.635Z,26.30
2022-08-10T11:42:11.817Z,26.70
2022-08-10T11:46:57.404Z,26.90
2022-08-10T11:52:21.857Z,27.00
2022-08-10T11:57:54.665Z,27.10
2022-08-10T12:03:04.537Z,27.00
2022-08-10T12:10:02.910Z,27.30
2022-08-10T12:13:37.610Z,28.00
2022-08-10T12:18:47.278Z,28.20
2022-08-10T12:24:03.426Z,28.20
2022-08-10T12:29:10.737Z,28.20
2022-08-10T12:34:51.142Z,28.40
2022-08-10T12:40:33.436Z,28.40
2022-08-10T12:46:01.922Z,28.10
2022-08-10T12:51:14.747Z,28.00
2022-08-10T12:56:26.504Z,28.10
2022-08-10T13:02:10.642Z,28.30
2022-08-10T13:06:55.498Z,28.30
2022-08-10T13:12:35.625Z,28.70
2022-08-10T13:17:39.603Z,28.60
2022-08-10T13:22:46.635Z,28.60
2022-08-10T13:28:00.896Z,28.60
2022-08-10T13:33:07.369Z,28.80
2022-08-10T13:38:13.228Z,28.70
2022-08-10T13:43:16.817Z,28.80
2022-08-10T13:48:21.963Z,28.80
2022-08-10T13:53:28.719Z,29.40
2022-08-10T13:58:42.077Z,29.10
2022-08-10T14:03:45.908Z,28.80
2022-08-10T14:08:56.969Z,29.00
2022-08-10T14:14:03.578Z,29.00
2022-08-10T14:19:13.119Z,29.00
2022-08-10T14:24:30.109Z,29.20
2022-08-10T14:29:40.032Z,29.20
2022-08-10T14:36:16.473Z,29.00
2022-08-10T14:40:15.351Z,29.00
2022-08-10T14:45:24.773Z,29.00
2022-08-10T14:50:31.637Z,29.50
2022-08-10T14:55:58.699Z,29.20
2022-08-10T15:01:00.876Z,29.50
2022-08-10T15:06:17.198Z,29.40
2022-08-10T15:12:13.992Z,29.30
2022-08-10T15:16:43.310Z,29.20
2022-08-10T15:21:46.397Z,28.80
2022-08-10T15:27:08.692Z,28.90
2022-08-10T15:32:30.435Z,29.30
2022-08-10T15:37:47.233Z,29.10
2022-08-10T15:43:01.555Z,28.80
2022-08-10T15:48:08.229Z,28.70
2022-08-10T15:53:16.981Z,29.00
2022-08-10T15:58:39.900Z,29.30
2022-08-10T16:03:54.753Z,29.60
2022-08-10T16:10:22.901Z,29.30
2022-08-10T16:14:31.517Z,29.30
2022-08-10T16:19:34.846Z,29.20
2022-08-10T16:24:39.521Z,29.00
2022-08-10T16:29:55.943Z,29.00
2022-08-10T16:35:00.777Z,28.80
2022-08-10T16:40:06.316Z,28.60
2022-08-10T16:45:17.559Z,28.40
2022-08-10T16:50:27.649Z,28.60
2022-08-10T16:55:49.505Z,28.40
2022-08-10T17:00:57.596Z,28.10
2022-08-10T17:06:11.416Z,28.50
2022-08-10T17:11:15.636Z,28.30
2022-08-10T17:16:17.942Z,28.20
2022-08-10T17:21:22.822Z,27.90
2022-08-10T17:26:35.653Z,28.10
2022-08-10T17:31:54.757Z,27.90
2022-08-10T17:37:03.468Z,27.50
2022-08-10T17:42:06.634Z,27.30
2022-08-10T17:47:11.681Z,27.50
2022-08-10T17:52:21.110Z,27.70
2022-08-10T17:57:24.047Z,27.70
2022-08-10T18:02:27.988Z,27.80
2022-08-10T18:07:38.642Z,27.70
2022-08-10T18:12:55.355Z,27.50
2022-08-10T18:18:01.223Z,27.50
2022-08-10T18:23:05.026Z,27.60
2022-08-10T18:28:16.118Z,27.50
2022-08-10T18:33:20.728Z,27.10
2022-08-10T18:38:24.749Z,26.90
2022-08-10T18:44:10.202Z,26.70
2022-08-10T18:49:15.414Z,26.60
2022-08-10T18:54:39.338Z,26.30
2022-08-10T19:00:09.678Z,26.10
2022-08-10T19:05:31.156Z,25.70
2022-08-10T19:10:48.607Z,25.30
2022-08-10T19:16:07.357Z,25.10
2022-08-10T19:21:30.840Z,24.80
2022-08-10T19:26:53.449Z,24.50
2022-08-10T19:32:06.374Z,24.20
2022-08-10T19:37:17.591Z,23.80
2022-08-10T19:42:31.475Z,23.60
2022-08-10T19:47:55.701Z,23.30
2022-08-10T19:53:04.085Z,23.00
2022-08-10T19:58:18.625Z,22.90
2022-08-10T20:03:28.166Z,22.70
2022-08-10T20:08:44.541Z,22.50
2022-08-10T20:13:55.728Z,22.40
2022-08-10T20:19:05.693Z,22.40
2022-08-10T20:24:12.678Z,22.20
2022-08-10T20:29:57.153Z,22.10
2022-08-10T20:34:40.784Z,21.90
2022-08-10T20:39:54.168Z,21.80
2022-08-10T20:45:22.975Z,21.80
2022-08-10T20:50:42.979Z,21.80
2022-08-10T20:55:54.510Z,21.60
2022-08-10T21:01:17.704Z,21.50
2022-08-10T21:06:42.708Z,21.40
2022-08-10T21:12:05.202Z,21.50
2022-08-10T21:17:22.874Z,21.70
2022-08-10T21:22:31.685Z,21.80
2022-08-10T21:28:00.011Z,21.70
2022-08-10T21:33:28.854Z,21.60
2022-08-10T21:38:53.875Z,21.50
2022-08-10T21:44:55.193Z,21.40
2022-08-10T21:50:27.546Z,21.20
2022-08-10T21:56:00.701Z,21.30
2022-08-10T22:01:39.456Z,21.40
2022-08-10T22:07:05.499Z,21.40
2022-08-10T22:12:34.169Z,21.50
2022-08-10T22:18:05.177Z,21.40
2022-08-10T22:23:46.412Z,21.40
2022-08-10T22:29:16.426Z,21.40
2022-08-10T22:34:40.110Z,21.50
2022-08-10T22:40:25.263Z,21.50
2022-08-10T22:45:47.256Z,21.50
2022-08-10T22:50:53.788Z,21.50
2022-08-10T22:56:15.299Z,21.50
2022-08-10T23:02:07.411Z,21.40
2022-08-10T23:07:31.243Z,21.40
2022-08-10T23:12:49.695Z,21.50
2022-08-10T23:18:14.567Z,21.40
2022-08-10T23:23:23.371Z,21.40
2022-08-10T23:28:55.522Z,21.30
2022-08-10T23:33:57.783Z,21.30
2022-08-10T23:39:24.327Z,21.20
2022-08-10T23:44:53.675Z,21.20
2022-08-10T23:49:58.759Z,21.20
2022-08-10T23:55:08.697Z,21.10
